Time;durP1;ratioP1;P1;durP2;ratioP2;P2;SDS_P1;SDS_P2;PMS_P1;PMS_P2;Temp;Humidity;BMP_temperature;BMP_pressure;BME280_temperature;BME280_humidity;BME280_pressure;Samples;Min_cycle;Max_cycle;Signal;HPM_P1;HPM_P2
2022/12/15 00:38:41;;;;;;;35.00;17.50;;;-9.20;99.90;;;;;;5038173;28;20238;-76
2022/12/15 00:41:10;;;;;;;29.47;16.90;;;-9.10;99.90;;;;;;5038973;28;20688;-75
2022/12/15 00:43:37;;;;;;;30.20;16.60;;;-9.10;99.90;;;;;;5049268;28;20757;-76
2022/12/15 00:48:49;;;;;;;31.20;16.53;;;-9.00;99.90;;;;;;5041305;28;20313;-76
2022/12/15 00:51:16;;;;;;;31.70;16.17;;;-8.90;99.90;;;;;;5033356;28;20215;-76
2022/12/15 01:21:12;;;;;;;30.87;17.10;;;-8.00;99.90;;;;;;5055312;28;20280;-75
2022/12/15 01:23:39;;;;;;;25.83;15.97;;;-7.90;99.90;;;;;;5050543;28;20502;-75
2022/12/15 01:26:07;;;;;;;26.10;16.27;;;-7.90;99.90;;;;;;5052015;28;20319;-75
2022/12/15 01:28:35;;;;;;;47.07;17.27;;;-7.80;99.90;;;;;;5043195;28;20707;-77
2022/12/15 01:31:02;;;;;;;27.93;16.10;;;-7.70;99.90;;;;;;5049464;28;20227;-76
2022/12/15 01:33:28;;;;;;;25.67;16.03;;;-7.60;99.90;;;;;;5052737;28;20227;-76
2022/12/15 01:35:57;;;;;;;27.00;16.00;;;-7.60;99.90;;;;;;5047044;28;20229;-76
2022/12/15 01:38:25;;;;;;;30.13;16.17;;;-7.60;99.90;;;;;;5054203;28;20228;-76
2022/12/15 01:40:53;;;;;;;32.20;15.07;;;-7.50;99.90;;;;;;5054189;28;21840;-77
2022/12/15 01:43:22;;;;;;;26.57;14.63;;;-7.50;99.90;;;;;;5055744;28;20218;-77
2022/12/15 01:46:00;;;;;;;25.77;15.27;;;-7.50;99.90;;;;;;5041136;28;20228;-75
2022/12/15 01:48:33;;;;;;;30.00;16.07;;;-7.50;99.90;;;;;;5038888;28;20237;-75
2022/12/15 01:51:05;;;;;;;24.70;14.13;;;-7.50;99.90;;;;;;5034791;28;20241;-75
2022/12/15 01:53:34;;;;;;;26.43;14.53;;;-7.50;99.90;;;;;;5052937;28;20227;-75
2022/12/15 01:56:03;;;;;;;26.27;15.20;;;-7.60;99.90;;;;;;5043508;28;20238;-75
2022/12/15 01:58:30;;;;;;;29.60;14.87;;;-7.60;99.90;;;;;;5054396;28;20231;-75
2022/12/15 02:01:00;;;;;;;26.03;14.33;;;-7.60;99.90;;;;;;5047818;28;20223;-75
2022/12/15 02:03:27;;;;;;;22.37;13.30;;;-7.60;99.90;;;;;;5039685;28;20247;-76
2022/12/15 02:05:55;;;;;;;23.57;14.00;;;-7.70;99.90;;;;;;5038579;28;20237;-75
2022/12/15 02:08:22;;;;;;;36.33;15.03;;;-7.70;99.90;;;;;;5037419;28;20229;-75
2022/12/15 02:11:05;;;;;;;27.30;14.57;;;-7.70;99.90;;;;;;5034225;28;20645;-76
2022/12/15 02:13:40;;;;;;;28.23;15.27;;;-7.80;99.90;;;;;;5051666;28;20279;-75
2022/12/15 02:16:17;;;;;;;26.87;15.10;;;-7.80;99.90;;;;;;5060521;28;20884;-75
2022/12/15 02:18:56;;;;;;;26.40;14.60;;;-7.90;99.90;;;;;;5061570;28;20224;-75
2022/12/15 02:21:29;;;;;;;25.97;14.63;;;-7.90;99.90;;;;;;5055979;28;20366;-76
2022/12/15 02:24:30;;;;;;;25.90;14.47;;;-7.90;99.90;;;;;;5058671;28;20229;-76
2022/12/15 02:27:15;;;;;;;29.03;14.63;;;-8.00;99.90;;;;;;5053430;28;20237;-77
2022/12/15 02:30:09;;;;;;;23.77;14.20;;;-8.00;99.90;;;;;;5055664;28;20713;-76
2022/12/15 02:32:42;;;;;;;27.50;14.90;;;-8.10;99.90;;;;;;5055819;28;20222;-76
2022/12/15 02:35:15;;;;;;;28.10;14.53;;;-8.10;99.90;;;;;;5045720;28;20222;-76
2022/12/15 02:37:41;;;;;;;25.67;14.20;;;-8.10;99.90;;;;;;5049176;28;20585;-76
2022/12/15 02:40:10;;;;;;;26.73;14.83;;;-8.20;99.90;;;;;;5032251;28;20711;-76
2022/12/15 02:42:42;;;;;;;26.53;14.70;;;-8.20;99.90;;;;;;5043332;28;20787;-76
2022/12/15 02:45:13;;;;;;;23.70;14.03;;;-8.30;99.90;;;;;;5050217;28;20231;-76
2022/12/15 02:47:44;;;;;;;25.63;14.47;;;-8.30;99.90;;;;;;5057913;28;20811;-76
2022/12/15 02:50:26;;;;;;;24.97;14.63;;;-8.30;99.90;;;;;;5059950;28;20578;-76
2022/12/15 02:53:02;;;;;;;24.10;13.93;;;-8.30;99.90;;;;;;5052575;28;20256;-76
2022/12/15 02:55:39;;;;;;;23.37;14.07;;;-8.30;99.90;;;;;;5058103;28;20603;-76
2022/12/15 02:58:12;;;;;;;22.77;13.83;;;-8.30;99.90;;;;;;5052508;28;20234;-76
2022/12/15 03:00:46;;;;;;;23.73;13.90;;;-8.30;99.90;;;;;;5044289;28;20686;-76
2022/12/15 03:03:18;;;;;;;25.30;14.63;;;-8.40;99.90;;;;;;5055670;28;20658;-76
2022/12/15 03:05:46;;;;;;;21.63;13.77;;;-8.40;99.90;;;;;;5060301;28;20393;-76
2022/12/15 03:08:12;;;;;;;27.83;15.87;;;-8.40;99.90;;;;;;5059100;28;20242;-76
2022/12/15 03:10:39;;;;;;;27.40;15.97;;;-8.40;99.90;;;;;;5058144;28;20221;-76
2022/12/15 03:13:06;;;;;;;27.63;14.77;;;-8.40;99.90;;;;;;5048883;28;20578;-77
2022/12/15 03:15:32;;;;;;;28.70;14.93;;;-8.40;99.90;;;;;;5054290;28;20228;-76
2022/12/15 03:18:00;;;;;;;32.60;15.60;;;-8.50;99.90;;;;;;5041772;28;20225;-76
2022/12/15 03:20:27;;;;;;;31.57;15.63;;;-8.50;99.90;;;;;;5044544;28;20226;-76
2022/12/15 03:22:54;;;;;;;25.77;15.20;;;-8.50;99.90;;;;;;5050848;28;20229;-76
2022/12/15 03:25:21;;;;;;;78.17;18.33;;;-8.50;99.90;;;;;;5036956;28;20721;-75
2022/12/15 03:27:48;;;;;;;26.90;15.90;;;-8.50;99.90;;;;;;5047526;28;20261;-76
2022/12/15 03:30:15;;;;;;;40.03;15.27;;;-8.50;99.90;;;;;;5058561;28;20228;-75
2022/12/15 03:32:42;;;;;;;25.87;15.70;;;-8.50;99.90;;;;;;5052597;28;20717;-75
2022/12/15 03:35:11;;;;;;;25.63;14.77;;;-8.50;99.90;;;;;;5053200;28;20229;-76
2022/12/15 03:37:38;;;;;;;23.63;14.50;;;-8.50;99.90;;;;;;5059602;28;20746;-76
2022/12/15 03:40:06;;;;;;;26.03;14.90;;;-8.50;99.90;;;;;;5059600;28;20313;-75
2022/12/15 03:42:48;;;;;;;24.03;13.73;;;-8.50;99.90;;;;;;5049760;28;20225;-75
2022/12/15 03:45:16;;;;;;;28.23;15.03;;;-8.50;99.90;;;;;;5050943;28;20277;-76
2022/12/15 03:47:44;;;;;;;27.13;14.87;;;-8.50;99.90;;;;;;5044539;28;20298;-76
2022/12/15 03:50:13;;;;;;;24.30;14.57;;;-8.50;99.90;;;;;;5049670;28;20227;-76
2022/12/15 03:52:40;;;;;;;23.20;14.27;;;-8.50;99.90;;;;;;5052648;28;20371;-76
2022/12/15 03:55:08;;;;;;;27.33;15.00;;;-8.50;99.90;;;;;;5052918;28;20231;-76
2022/12/15 03:57:35;;;;;;;25.33;14.67;;;-8.60;99.90;;;;;;5054609;28;20791;-77
2022/12/15 04:00:01;;;;;;;26.67;14.50;;;-8.60;99.90;;;;;;5056095;28;20610;-76
2022/12/15 04:02:28;;;;;;;27.47;14.97;;;-8.60;99.90;;;;;;5058391;28;20230;-76
2022/12/15 04:04:55;;;;;;;24.50;14.60;;;-8.60;99.90;;;;;;5053544;28;20224;-75
2022/12/15 04:07:23;;;;;;;25.47;14.77;;;-8.60;99.90;;;;;;5055917;28;20253;-75
2022/12/15 04:09:49;;;;;;;25.37;15.07;;;-8.60;99.90;;;;;;5050044;23;20227;-81
2022/12/15 04:12:16;;;;;;;26.07;15.33;;;-8.60;99.90;;;;;;5039684;28;20314;-80
2022/12/15 04:14:43;;;;;;;24.87;14.13;;;-8.70;99.90;;;;;;5035250;28;20279;-80
2022/12/15 04:17:10;;;;;;;30.00;15.43;;;-8.70;99.90;;;;;;5051717;28;20795;-80
2022/12/15 04:22:28;;;;;;;26.73;14.87;;;-8.70;99.90;;;;;;5014416;28;20218;-80
2022/12/15 05:33:36;;;;;;;26.67;14.03;;;-8.80;99.90;;;;;;5020009;28;20231;-79
2022/12/15 05:36:03;;;;;;;27.50;15.40;;;-8.80;99.90;;;;;;5027525;28;20236;-79
2022/12/15 05:38:30;;;;;;;25.43;14.10;;;-8.70;99.90;;;;;;5025622;28;20282;-80
2022/12/15 05:40:57;;;;;;;30.03;16.43;;;-8.80;99.90;;;;;;5017889;28;20715;-80
2022/12/15 05:43:25;;;;;;;34.73;14.93;;;-8.80;99.90;;;;;;5019289;28;20414;-80
2022/12/15 05:45:52;;;;;;;24.37;14.80;;;-8.80;99.90;;;;;;5028747;28;20276;-80
2022/12/15 05:48:19;;;;;;;22.47;13.30;;;-8.80;99.90;;;;;;5027888;28;20303;-79
2022/12/15 05:50:46;;;;;;;22.43;14.30;;;-8.70;99.90;;;;;;5020756;28;20717;-79
2022/12/15 05:53:13;;;;;;;24.83;14.50;;;-8.70;99.90;;;;;;5033969;28;20234;-79
2022/12/15 05:55:40;;;;;;;33.70;16.73;;;-8.70;99.90;;;;;;5025763;28;20231;-80
2022/12/15 05:58:06;;;;;;;25.37;15.60;;;-8.70;99.90;;;;;;5024780;28;20411;-80
2022/12/15 06:00:35;;;;;;;24.03;14.90;;;-8.70;99.90;;;;;;5051342;28;20297;-81
2022/12/15 06:03:01;;;;;;;24.67;14.97;;;-8.70;99.90;;;;;;5041979;28;20236;-79
2022/12/15 06:05:28;;;;;;;26.23;15.63;;;-8.70;99.90;;;;;;5024700;28;20294;-80
2022/12/15 06:07:55;;;;;;;31.60;15.80;;;-8.70;99.90;;;;;;5029615;28;20967;-81
2022/12/15 06:10:21;;;;;;;28.43;16.93;;;-8.70;99.90;;;;;;5029942;28;20229;-82
2022/12/15 06:12:48;;;;;;;84.20;18.73;;;-8.60;99.90;;;;;;5023445;28;20234;-79
2022/12/15 06:15:15;;;;;;;153.53;28.20;;;-8.60;99.90;;;;;;5024897;28;20712;-79
2022/12/15 06:17:43;;;;;;;27.57;15.93;;;-8.60;99.90;;;;;;5034131;28;20722;-79
2022/12/15 06:20:11;;;;;;;29.07;14.23;;;-8.60;99.90;;;;;;5024285;28;20322;-79
2022/12/15 06:22:37;;;;;;;38.33;16.03;;;-8.50;99.90;;;;;;5022658;28;20229;-79
2022/12/15 06:25:05;;;;;;;28.47;15.07;;;-8.50;99.90;;;;;;5015066;28;20326;-79
2022/12/15 06:27:34;;;;;;;24.67;14.27;;;-8.50;99.90;;;;;;5018629;28;20270;-78
2022/12/15 06:30:02;;;;;;;52.17;17.30;;;-8.40;99.90;;;;;;5032617;28;20704;-79
2022/12/15 06:32:29;;;;;;;47.40;16.23;;;-8.40;99.90;;;;;;5046676;28;20310;-79
2022/12/15 06:34:57;;;;;;;28.50;15.40;;;-8.40;99.90;;;;;;5023275;28;20315;-79
2022/12/15 06:37:24;;;;;;;31.83;14.77;;;-8.40;99.90;;;;;;5037212;28;20670;-79
2022/12/15 06:39:51;;;;;;;24.33;14.53;;;-8.40;99.90;;;;;;5026527;28;20271;-79
2022/12/15 06:42:17;;;;;;;27.40;14.57;;;-8.30;99.90;;;;;;5033449;28;20231;-79
2022/12/15 06:44:44;;;;;;;27.23;16.17;;;-8.30;99.90;;;;;;5035579;28;20286;-79
2022/12/15 06:47:11;;;;;;;23.23;14.40;;;-8.30;99.90;;;;;;5035769;28;20250;-79
2022/12/15 06:49:38;;;;;;;25.77;14.13;;;-8.30;99.90;;;;;;5028135;28;20237;-79
2022/12/15 06:52:07;;;;;;;26.30;14.70;;;-8.30;99.90;;;;;;5033053;28;20329;-79
2022/12/15 06:54:34;;;;;;;29.13;15.27;;;-8.30;99.90;;;;;;5020177;28;20237;-79
2022/12/15 06:57:01;;;;;;;46.37;16.10;;;-8.30;99.90;;;;;;5030000;28;20248;-79
2022/12/15 06:59:27;;;;;;;26.13;14.60;;;-8.30;99.90;;;;;;5026430;28;20230;-79
2022/12/15 07:01:54;;;;;;;24.70;14.93;;;-8.20;99.90;;;;;;5013851;28;20649;-79
2022/12/15 07:04:23;;;;;;;32.43;15.03;;;-8.20;99.90;;;;;;5008404;28;20219;-79
2022/12/15 07:06:50;;;;;;;26.47;14.63;;;-8.20;99.90;;;;;;5018458;28;20522;-79
2022/12/15 07:09:18;;;;;;;24.83;14.17;;;-8.20;99.90;;;;;;5020839;28;20888;-79
2022/12/15 07:11:48;;;;;;;34.13;15.47;;;-8.10;99.90;;;;;;5038036;28;20222;-79
2022/12/15 07:14:14;;;;;;;30.70;15.20;;;-8.10;99.90;;;;;;5037984;28;20285;-80
2022/12/15 07:16:41;;;;;;;28.13;15.53;;;-8.10;99.90;;;;;;5026983;28;20237;-79
2022/12/15 07:19:11;;;;;;;24.37;13.27;;;-8.10;99.90;;;;;;5022050;28;20226;-79
2022/12/15 07:21:37;;;;;;;25.47;13.23;;;-8.10;99.90;;;;;;5035878;28;20229;-79
2022/12/15 07:24:05;;;;;;;26.47;15.47;;;-8.10;99.90;;;;;;5039929;28;20229;-79
2022/12/15 07:26:34;;;;;;;27.33;14.93;;;-8.10;99.90;;;;;;5017812;28;20307;-79
2022/12/15 07:29:00;;;;;;;26.20;15.93;;;-8.10;99.90;;;;;;5027658;28;20234;-80
2022/12/15 07:31:27;;;;;;;27.40;15.77;;;-8.10;99.90;;;;;;5022340;28;20224;-79
2022/12/15 07:33:54;;;;;;;28.60;15.37;;;-8.10;99.90;;;;;;5028980;28;20228;-79
2022/12/15 07:36:20;;;;;;;27.87;15.80;;;-8.00;99.90;;;;;;5018803;28;20230;-79
2022/12/15 07:38:47;;;;;;;26.40;15.13;;;-8.00;99.90;;;;;;5029008;28;20236;-79
2022/12/15 07:41:14;;;;;;;26.50;14.90;;;-8.00;99.90;;;;;;5016802;28;20323;-80
2022/12/15 07:43:47;;;;;;;28.23;15.83;;;-8.00;99.90;;;;;;5036068;28;20236;-79
2022/12/15 07:46:13;;;;;;;25.40;15.37;;;-8.00;99.90;;;;;;5019278;28;20230;-79
2022/12/15 07:48:40;;;;;;;28.70;15.77;;;-7.90;99.90;;;;;;5050648;28;21440;-79
2022/12/15 07:51:08;;;;;;;29.30;16.20;;;-7.90;99.90;;;;;;5012075;28;20238;-79
2022/12/15 07:53:35;;;;;;;25.27;14.90;;;-7.90;99.90;;;;;;5030885;28;20234;-79
2022/12/15 07:56:04;;;;;;;27.70;15.83;;;-7.80;99.90;;;;;;5019801;28;20230;-79
2022/12/15 07:58:31;;;;;;;23.67;14.13;;;-7.80;99.90;;;;;;5023662;28;20231;-79
2022/12/15 08:01:01;;;;;;;29.07;15.47;;;-7.80;99.90;;;;;;5013091;28;20439;-79
2022/12/15 08:03:30;;;;;;;29.73;15.47;;;-7.70;99.90;;;;;;5035972;28;20233;-80
2022/12/15 08:05:56;;;;;;;27.93;16.33;;;-7.70;99.90;;;;;;5028334;28;20262;-79
2022/12/15 08:08:23;;;;;;;26.20;15.93;;;-7.60;99.90;;;;;;5028748;28;20842;-79
2022/12/15 08:10:50;;;;;;;27.70;16.60;;;-7.50;99.90;;;;;;5019798;28;20234;-80
2022/12/15 08:13:16;;;;;;;26.17;16.50;;;-7.40;99.90;;;;;;5013838;28;20283;-79
2022/12/15 08:15:43;;;;;;;27.20;16.63;;;-7.30;99.90;;;;;;5032538;28;20226;-81
2022/12/15 08:18:11;;;;;;;27.50;16.20;;;-7.20;99.90;;;;;;5016657;28;20232;-81
2022/12/15 08:20:40;;;;;;;28.67;15.73;;;-7.00;99.90;;;;;;5016272;28;20256;-79
2022/12/15 08:23:10;;;;;;;26.47;15.90;;;-6.80;99.90;;;;;;5018763;28;20304;-80
2022/12/15 08:25:37;;;;;;;25.17;15.67;;;-6.60;99.90;;;;;;5014280;28;20234;-80
2022/12/15 08:28:03;;;;;;;28.77;15.30;;;-6.30;99.90;;;;;;5036236;28;20746;-81
2022/12/15 08:30:31;;;;;;;26.00;15.63;;;-6.00;99.90;;;;;;5039585;28;20224;-81
2022/12/15 08:32:58;;;;;;;25.17;14.70;;;-5.60;99.90;;;;;;5040203;28;20306;-81
2022/12/15 08:35:26;;;;;;;23.60;13.73;;;-5.30;99.90;;;;;;5027643;28;20232;-81
2022/12/15 08:37:56;;;;;;;25.93;14.57;;;-5.00;99.90;;;;;;5032960;28;20791;-80
2022/12/15 08:40:24;;;;;;;24.70;14.23;;;-4.70;99.90;;;;;;5029487;28;20219;-80
2022/12/15 08:42:53;;;;;;;24.70;14.43;;;-4.60;99.90;;;;;;5040409;28;20262;-79
2022/12/15 08:45:20;;;;;;;22.77;14.10;;;-4.40;99.90;;;;;;5026039;28;20220;-80
2022/12/15 08:47:46;;;;;;;20.37;13.67;;;-4.20;99.90;;;;;;5027658;28;20225;-80
2022/12/15 08:50:18;;;;;;;21.43;13.27;;;-4.10;99.90;;;;;;5029537;28;20716;-80
2022/12/15 08:52:46;;;;;;;23.90;14.17;;;-3.90;99.90;;;;;;5020566;28;20674;-81
2022/12/15 08:55:12;;;;;;;22.90;13.53;;;-3.80;99.90;;;;;;5029189;28;20212;-80
2022/12/15 08:57:39;;;;;;;23.80;14.13;;;-3.80;99.90;;;;;;5030975;28;20270;-80
2022/12/15 09:00:07;;;;;;;25.83;13.97;;;-3.80;99.90;;;;;;5024078;28;20708;-80
2022/12/15 09:02:34;;;;;;;20.80;13.40;;;-3.80;99.90;;;;;;5028048;28;20578;-81
2022/12/15 09:05:00;;;;;;;23.73;14.23;;;-3.80;99.90;;;;;;5036624;28;20642;-80
2022/12/15 09:07:27;;;;;;;21.63;13.37;;;-3.80;99.90;;;;;;5020561;28;20305;-81
2022/12/15 09:09:55;;;;;;;22.03;14.20;;;-3.70;99.90;;;;;;5032182;28;20560;-80
2022/12/15 09:12:22;;;;;;;19.10;13.50;;;-3.50;99.90;;;;;;5037888;28;20295;-81
2022/12/15 09:14:49;;;;;;;24.77;14.57;;;-3.30;99.90;;;;;;5008163;28;20761;-81
2022/12/15 09:17:15;;;;;;;20.63;13.30;;;-3.00;99.90;;;;;;5030598;28;20972;-80
2022/12/15 09:19:42;;;;;;;21.50;13.47;;;-2.70;99.90;;;;;;5012148;28;20230;-80
2022/12/15 09:22:09;;;;;;;21.80;13.60;;;-2.50;99.90;;;;;;5024950;28;20326;-80
2022/12/15 09:24:35;;;;;;;22.20;13.77;;;-2.30;99.90;;;;;;5035738;28;20241;-80
2022/12/15 09:27:04;;;;;;;21.03;13.27;;;-2.10;99.90;;;;;;5041393;28;20225;-80
2022/12/15 09:29:31;;;;;;;18.93;12.23;;;-1.90;99.90;;;;;;5029846;28;20748;-80
2022/12/15 09:31:59;;;;;;;20.57;13.03;;;-1.60;99.90;;;;;;5021083;28;20228;-80
2022/12/15 09:34:26;;;;;;;20.63;12.90;;;-1.60;99.90;;;;;;5023159;28;20241;-80
2022/12/15 09:36:52;;;;;;;20.83;13.20;;;-1.50;99.90;;;;;;5040074;28;20235;-80
2022/12/15 09:39:20;;;;;;;21.57;13.17;;;-1.50;99.90;;;;;;5021716;28;20257;-80
2022/12/15 09:41:55;;;;;;;20.27;13.27;;;-1.60;99.90;;;;;;5018946;28;20323;-80
2022/12/15 09:44:27;;;;;;;20.80;12.97;;;-1.70;99.90;;;;;;5020546;28;20253;-81
2022/12/15 09:47:14;;;;;;;20.20;12.87;;;-1.70;99.90;;;;;;5037405;28;20925;-81
2022/12/15 09:49:49;;;;;;;20.43;12.27;;;-1.80;99.90;;;;;;5027497;28;20233;-80
2022/12/15 09:52:24;;;;;;;21.37;12.93;;;-1.80;99.90;;;;;;5034706;28;20238;-80
2022/12/15 09:54:51;;;;;;;17.60;12.30;;;-1.90;99.90;;;;;;5033287;28;20221;-79
2022/12/15 09:57:26;;;;;;;19.00;12.40;;;-1.90;99.90;;;;;;5032209;28;20778;-79
2022/12/15 10:00:06;;;;;;;21.40;12.40;;;-2.00;99.90;;;;;;5026812;28;20235;-79
2022/12/15 10:02:56;;;;;;;19.70;13.43;;;-2.10;99.90;;;;;;5039048;28;20227;-79
2022/12/15 10:05:37;;;;;;;18.20;12.50;;;-2.10;99.90;;;;;;5040507;28;20266;-79
2022/12/15 10:08:04;;;;;;;22.67;13.47;;;-2.10;99.90;;;;;;5026594;28;20223;-78
2022/12/15 10:10:37;;;;;;;17.50;12.50;;;-2.00;99.90;;;;;;5037001;28;20221;-80
2022/12/15 10:13:10;;;;;;;20.20;13.40;;;-1.90;99.90;;;;;;5041516;28;20231;-80
2022/12/15 10:15:49;;;;;;;20.07;12.73;;;-1.90;99.90;;;;;;5034546;28;20233;-82
2022/12/15 10:18:22;;;;;;;20.93;12.80;;;-1.80;99.90;;;;;;5036510;28;20252;-81
2022/12/15 10:20:51;;;;;;;21.93;13.63;;;-1.80;99.90;;;;;;5031841;28;20271;-83
2022/12/15 10:23:21;;;;;;;20.90;14.30;;;-1.90;99.90;;;;;;5025070;28;20721;-81
2022/12/15 10:25:50;;;;;;;20.60;13.53;;;-1.90;99.90;;;;;;5038555;28;20251;-83
2022/12/15 10:28:31;;;;;;;21.23;13.67;;;-2.00;99.90;;;;;;5029658;28;20238;-83
2022/12/15 10:31:02;;;;;;;22.27;14.20;;;-2.10;99.90;;;;;;5021100;28;20339;-82
2022/12/15 10:33:34;;;;;;;22.00;13.97;;;-2.10;99.90;;;;;;5039384;28;20312;-81
2022/12/15 10:36:01;;;;;;;24.30;15.00;;;-2.20;99.90;;;;;;5038727;28;20309;-84
2022/12/15 10:38:36;;;;;;;24.00;14.30;;;-2.20;99.90;;;;;;5029143;28;20423;-84
2022/12/15 10:41:06;;;;;;;17.83;13.90;;;-2.30;99.90;;;;;;5022379;28;20230;-84
2022/12/15 10:43:35;;;;;;;21.60;13.40;;;-2.30;99.90;;;;;;5014778;28;20274;-82
2022/12/15 10:46:12;;;;;;;22.67;14.40;;;-2.30;99.90;;;;;;5018194;28;20232;-82
2022/12/15 10:48:39;;;;;;;26.83;14.80;;;-2.40;99.90;;;;;;5024520;28;20231;-84
2022/12/15 10:51:16;;;;;;;21.13;13.20;;;-2.40;99.90;;;;;;5025539;28;20669;-82
2022/12/15 10:53:45;;;;;;;24.67;14.03;;;-2.40;99.90;;;;;;5013571;28;20305;-81
2022/12/15 10:56:21;;;;;;;19.93;13.50;;;-2.40;99.90;;;;;;5036896;28;20259;-82
2022/12/15 10:58:50;;;;;;;25.30;14.43;;;-2.40;99.90;;;;;;5024715;28;20245;-82
2022/12/15 11:01:22;;;;;;;22.93;15.27;;;-2.30;99.90;;;;;;5039074;28;20222;-84
2022/12/15 11:03:51;;;;;;;21.07;13.60;;;-2.30;99.90;;;;;;5039734;28;20313;-83
2022/12/15 11:06:21;;;;;;;26.27;14.27;;;-2.20;99.90;;;;;;5019777;28;20219;-83
2022/12/15 11:08:49;;;;;;;21.47;13.93;;;-2.20;99.90;;;;;;5025367;28;20351;-81
2022/12/15 11:14:18;;;;;;;20.43;13.63;;;-2.10;99.90;;;;;;5018396;28;20442;-82
2022/12/15 11:16:51;;;;;;;18.03;13.17;;;-2.10;99.90;;;;;;5029792;28;20230;-84
2022/12/15 11:19:28;;;;;;;24.73;13.67;;;-2.10;99.90;;;;;;5035311;28;20755;-82
2022/12/15 11:21:59;;;;;;;23.27;13.80;;;-2.10;99.90;;;;;;5023520;28;20438;-83
2022/12/15 11:24:33;;;;;;;21.80;13.93;;;-2.00;99.90;;;;;;5022465;28;20258;-85
2022/12/15 11:27:09;;;;;;;25.80;14.23;;;-2.00;99.90;;;;;;5019307;28;20261;-84
2022/12/15 11:29:51;;;;;;;21.20;13.80;;;-1.90;99.90;;;;;;5025454;28;20851;-82
2022/12/15 11:32:23;;;;;;;21.03;14.53;;;-1.80;99.90;;;;;;5035983;28;20223;-86
2022/12/15 11:34:50;;;;;;;24.13;14.73;;;-1.70;99.90;;;;;;5047489;28;20875;-84
2022/12/15 11:37:36;;;;;;;23.13;14.70;;;-1.60;99.90;;;;;;5014352;28;20227;-83
2022/12/15 11:40:17;;;;;;;19.60;12.80;;;-1.50;99.90;;;;;;5018561;28;20288;-81
2022/12/15 11:43:00;;;;;;;21.20;13.13;;;-1.50;99.90;;;;;;5029525;28;20251;-83
2022/12/15 11:45:35;;;;;;;22.30;13.87;;;-1.40;99.90;;;;;;5028182;28;20389;-85
2022/12/15 11:48:12;;;;;;;20.87;12.77;;;-1.30;99.90;;;;;;5037058;28;20317;-84
2022/12/15 11:50:48;;;;;;;19.10;12.07;;;-1.30;99.90;;;;;;5051180;28;20239;-82
2022/12/15 11:53:23;;;;;;;18.47;11.73;;;-1.30;99.90;;;;;;5018396;28;20245;-86
2022/12/15 11:55:57;;;;;;;20.53;12.70;;;-1.30;99.90;;;;;;5022095;28;20307;-85
2022/12/15 11:58:50;;;;;;;20.73;13.10;;;-1.30;99.90;;;;;;5034479;28;20239;-80
2022/12/15 12:01:32;;;;;;;19.40;13.23;;;-1.20;99.90;;;;;;5028132;28;20222;-80
2022/12/15 12:04:14;;;;;;;20.00;12.37;;;-1.20;99.90;;;;;;5024787;28;20311;-80
2022/12/15 12:06:53;;;;;;;17.50;11.87;;;-1.10;99.90;;;;;;5013621;28;20233;-81
2022/12/15 12:09:33;;;;;;;20.23;12.37;;;-1.10;99.90;;;;;;5028781;28;20327;-80
2022/12/15 12:12:10;;;;;;;19.47;12.20;;;-1.10;99.90;;;;;;5018973;28;20555;-80
2022/12/15 12:14:50;;;;;;;19.40;11.73;;;-1.00;99.90;;;;;;5029644;28;20225;-81
2022/12/15 12:17:26;;;;;;;16.23;11.73;;;-1.00;99.90;;;;;;5041585;28;20321;-80
2022/12/15 12:19:59;;;;;;;18.80;11.90;;;-1.00;99.90;;;;;;5040812;28;20243;-80
2022/12/15 12:22:29;;;;;;;19.50;12.27;;;-0.90;99.90;;;;;;5043710;28;20233;-80
2022/12/15 12:25:01;;;;;;;20.00;12.07;;;-0.90;99.90;;;;;;5019308;28;20581;-81
2022/12/15 12:27:36;;;;;;;15.70;11.97;;;-0.90;99.90;;;;;;5034521;28;20258;-80
2022/12/15 12:30:05;;;;;;;23.97;14.80;;;-0.80;99.90;;;;;;5042503;28;20385;-80
2022/12/15 12:32:41;;;;;;;31.93;19.47;;;-0.80;99.90;;;;;;5033878;28;20226;-80
2022/12/15 12:35:15;;;;;;;21.57;15.17;;;-0.70;99.90;;;;;;5022214;28;20258;-80
2022/12/15 12:37:44;;;;;;;22.50;14.07;;;-0.70;99.90;;;;;;5017164;28;20229;-80
2022/12/15 12:40:18;;;;;;;17.57;11.73;;;-0.60;99.90;;;;;;5026081;28;20240;-80
2022/12/15 12:42:53;;;;;;;16.37;12.00;;;-0.60;99.90;;;;;;5021247;28;20286;-80
2022/12/15 12:45:22;;;;;;;16.90;11.60;;;-0.50;99.90;;;;;;5027452;28;21876;-80
2022/12/15 12:47:54;;;;;;;16.33;11.00;;;-0.50;99.90;;;;;;5024808;28;20238;-80
2022/12/15 12:50:25;;;;;;;19.37;12.00;;;-0.50;99.90;;;;;;5002260;28;20629;-80
2022/12/15 12:52:57;;;;;;;17.17;12.00;;;-0.50;99.90;;;;;;5046926;28;20227;-80
2022/12/15 12:55:27;;;;;;;16.60;10.50;;;-0.50;99.90;;;;;;5035611;28;20224;-80
2022/12/15 12:57:55;;;;;;;15.20;10.47;;;-0.50;99.90;;;;;;5033215;28;20794;-80
2022/12/15 13:00:25;;;;;;;18.83;11.60;;;-0.50;99.90;;;;;;5030070;28;20231;-80
2022/12/15 13:03:15;;;;;;;17.80;11.17;;;-0.50;99.90;;;;;;5020857;28;20217;-80
2022/12/15 13:05:44;;;;;;;19.20;11.50;;;-0.40;99.90;;;;;;5041778;28;20226;-80
2022/12/15 13:08:50;;;;;;;21.67;12.67;;;-0.40;99.90;;;;;;5025366;28;20249;-80
2022/12/15 13:11:57;;;;;;;15.23;10.97;;;-0.40;99.90;;;;;;5032693;28;20290;-80
2022/12/15 13:14:44;;;;;;;18.70;11.70;;;-0.40;99.90;;;;;;4980258;28;20236;-80
2022/12/15 13:17:17;;;;;;;16.63;10.80;;;-0.30;99.90;;;;;;4979903;28;20260;-80
2022/12/15 13:20:15;;;;;;;16.80;10.87;;;-0.30;99.90;;;;;;5018824;28;20224;-79
2022/12/15 13:22:43;;;;;;;18.20;11.77;;;-0.40;99.90;;;;;;5043414;28;20440;-80
2022/12/15 13:25:39;;;;;;;17.20;10.83;;;-0.40;99.90;;;;;;5046530;28;20231;-80
2022/12/15 13:28:27;;;;;;;15.90;11.10;;;-0.30;99.90;;;;;;5046793;28;20236;-80
2022/12/15 13:31:27;;;;;;;14.50;9.37;;;-0.30;99.90;;;;;;5033643;28;20237;-80
2022/12/15 13:34:16;;;;;;;15.47;11.20;;;-0.30;99.90;;;;;;5036843;28;20229;-79
2022/12/15 13:36:54;;;;;;;16.17;10.20;;;-0.30;99.90;;;;;;5028431;28;20235;-80
2022/12/15 13:39:55;;;;;;;17.43;10.20;;;-0.20;99.90;;;;;;5045525;28;20242;-80
2022/12/15 13:42:32;;;;;;;18.57;10.80;;;-0.20;99.90;;;;;;5023763;28;20224;-80
2022/12/15 13:45:28;;;;;;;14.63;10.43;;;-0.20;99.90;;;;;;5040624;28;20223;-80
2022/12/15 13:47:56;;;;;;;16.43;9.93;;;-0.10;99.90;;;;;;5039880;28;20236;-80
2022/12/15 13:50:32;;;;;;;15.33;10.83;;;-0.10;99.90;;;;;;5025202;28;20217;-80
2022/12/15 13:53:04;;;;;;;22.67;12.87;;;-0.10;99.90;;;;;;5030611;28;20235;-81
2022/12/15 13:55:40;;;;;;;15.87;11.00;;;0.00;99.90;;;;;;5033246;28;20255;-79
2022/12/15 13:58:14;;;;;;;18.53;11.60;;;0.00;99.90;;;;;;5034972;28;20231;-80
2022/12/15 14:00:50;;;;;;;15.50;10.30;;;0.00;99.90;;;;;;5027562;28;20322;-82
2022/12/15 14:03:18;;;;;;;14.60;9.73;;;0.10;99.90;;;;;;5028959;28;20419;-82
2022/12/15 14:05:53;;;;;;;16.03;11.13;;;0.10;99.90;;;;;;5038434;28;20244;-81
2022/12/15 14:08:22;;;;;;;16.37;10.63;;;0.10;99.90;;;;;;5046064;28;20492;-81
2022/12/15 14:10:53;;;;;;;14.77;10.13;;;0.10;99.90;;;;;;5042644;28;20230;-79
2022/12/15 14:13:23;;;;;;;16.07;10.70;;;0.10;99.90;;;;;;5030812;28;20647;-81
2022/12/15 14:15:53;;;;;;;18.97;11.40;;;0.20;99.90;;;;;;5037084;28;20228;-82
2022/12/15 14:18:32;;;;;;;17.37;11.47;;;0.20;99.90;;;;;;5046223;28;20330;-82
2022/12/15 14:21:00;;;;;;;17.93;11.93;;;0.20;99.90;;;;;;5034879;28;20539;-81
2022/12/15 14:23:29;;;;;;;17.43;9.63;;;0.20;99.90;;;;;;5031267;28;20239;-79
2022/12/15 14:26:04;;;;;;;17.70;10.27;;;0.20;99.90;;;;;;5023767;28;20231;-80
2022/12/15 14:28:33;;;;;;;18.93;10.93;;;0.20;99.90;;;;;;5026992;28;20228;-80
2022/12/15 14:31:03;;;;;;;18.23;10.90;;;0.20;99.90;;;;;;5045553;28;20286;-80
2022/12/15 14:33:33;;;;;;;14.33;8.77;;;0.20;99.90;;;;;;5044174;28;20224;-80
2022/12/15 14:36:01;;;;;;;12.73;9.30;;;0.20;99.90;;;;;;5037262;28;20986;-80
2022/12/15 14:38:32;;;;;;;26.37;16.90;;;0.10;99.90;;;;;;5034981;28;20451;-80
2022/12/15 14:41:02;;;;;;;35.80;22.30;;;0.10;99.90;;;;;;5030839;28;20228;-80
2022/12/15 14:43:34;;;;;;;21.17;11.10;;;0.10;99.90;;;;;;5027755;28;20231;-80
2022/12/15 14:46:10;;;;;;;18.53;11.20;;;0.10;99.90;;;;;;5031270;28;20236;-80
2022/12/15 14:48:39;;;;;;;17.57;11.30;;;0.10;99.90;;;;;;5041408;28;20241;-80
2022/12/15 14:51:10;;;;;;;15.67;11.07;;;0.10;99.90;;;;;;5024869;28;20230;-79
2022/12/15 14:53:39;;;;;;;13.97;10.10;;;0.10;99.90;;;;;;5029915;28;20790;-80
2022/12/15 14:56:20;;;;;;;18.43;10.70;;;0.10;99.90;;;;;;5040073;28;20746;-79
2022/12/15 14:58:48;;;;;;;20.00;10.60;;;0.00;99.90;;;;;;5032113;28;20622;-79
2022/12/15 15:01:23;;;;;;;15.30;10.33;;;0.00;99.90;;;;;;5046472;28;20215;-80
2022/12/15 15:03:57;;;;;;;17.50;10.40;;;0.00;99.90;;;;;;5038653;28;20797;-80
2022/12/15 15:06:29;;;;;;;16.23;10.37;;;0.00;99.90;;;;;;5030267;28;20228;-80
2022/12/15 15:09:05;;;;;;;15.53;9.03;;;0.00;99.90;;;;;;5030773;28;20259;-79
2022/12/15 15:11:36;;;;;;;13.80;9.73;;;-0.10;99.90;;;;;;5042929;28;20225;-80